sensor_id;sensor_type;location;lat;lon;timestamp;P1;durP1;ratioP1;P2;durP2;ratioP2
33152;SDS011;19509;43.862;26.176;2022-07-29T00:00:34;12.07;;;10.87;;
33152;SDS011;19509;43.862;26.176;2022-07-29T00:03:00;11.90;;;10.60;;
33152;SDS011;19509;43.862;26.176;2022-07-29T00:05:26;13.10;;;11.37;;
33152;SDS011;19509;43.862;26.176;2022-07-29T00:07:52;11.83;;;10.63;;
33152;SDS011;19509;43.862;26.176;2022-07-29T00:10:18;11.50;;;10.33;;
33152;SDS011;19509;43.862;26.176;2022-07-29T00:12:44;12.73;;;11.17;;
33152;SDS011;19509;43.862;26.176;2022-07-29T00:15:09;10.80;;;9.80;;
33152;SDS011;19509;43.862;26.176;2022-07-29T00:17:35;10.90;;;9.80;;
33152;SDS011;19509;43.862;26.176;2022-07-29T00:20:00;12.53;;;10.37;;
33152;SDS011;19509;43.862;26.176;2022-07-29T00:22:26;12.40;;;10.20;;
33152;SDS011;19509;43.862;26.176;2022-07-29T00:24:51;10.80;;;9.77;;
33152;SDS011;19509;43.862;26.176;2022-07-29T00:27:17;10.70;;;9.73;;
33152;SDS011;19509;43.862;26.176;2022-07-29T00:29:43;12.77;;;11.30;;
33152;SDS011;19509;43.862;26.176;2022-07-29T00:32:08;12.23;;;11.10;;
33152;SDS011;19509;43.862;26.176;2022-07-29T00:34:34;13.23;;;10.97;;
33152;SDS011;19509;43.862;26.176;2022-07-29T00:37:18;13.57;;;10.40;;
33152;SDS011;19509;43.862;26.176;2022-07-29T00:39:44;12.33;;;11.03;;
33152;SDS011;19509;43.862;26.176;2022-07-29T00:42:09;12.67;;;11.47;;
33152;SDS011;19509;43.862;26.176;2022-07-29T00:44:38;13.10;;;11.73;;
33152;SDS011;19509;43.862;26.176;2022-07-29T00:47:06;13.30;;;12.00;;
33152;SDS011;19509;43.862;26.176;2022-07-29T00:49:32;14.73;;;12.40;;
33152;SDS011;19509;43.862;26.176;2022-07-29T00:52:00;12.90;;;11.70;;
33152;SDS011;19509;43.862;26.176;2022-07-29T00:54:27;12.37;;;11.27;;
33152;SDS011;19509;43.862;26.176;2022-07-29T00:56:54;12.83;;;11.07;;
33152;SDS011;19509;43.862;26.176;2022-07-29T00:59:21;13.40;;;11.60;;
33152;SDS011;19509;43.862;26.176;2022-07-29T01:01:46;12.93;;;11.37;;
33152;SDS011;19509;43.862;26.176;2022-07-29T01:04:12;11.73;;;10.63;;
33152;SDS011;19509;43.862;26.176;2022-07-29T01:06:38;14.80;;;10.73;;
33152;SDS011;19509;43.862;26.176;2022-07-29T01:09:03;12.10;;;10.37;;
33152;SDS011;19509;43.862;26.176;2022-07-29T01:11:29;10.53;;;9.50;;
33152;SDS011;19509;43.862;26.176;2022-07-29T01:13:55;10.77;;;9.30;;
33152;SDS011;19509;43.862;26.176;2022-07-29T01:16:24;9.87;;;8.90;;
33152;SDS011;19509;43.862;26.176;2022-07-29T01:18:57;9.57;;;8.27;;
33152;SDS011;19509;43.862;26.176;2022-07-29T01:21:48;8.73;;;7.47;;
33152;SDS011;19509;43.862;26.176;2022-07-29T01:27:06;8.93;;;7.87;;
33152;SDS011;19509;43.862;26.176;2022-07-29T01:29:56;8.80;;;7.90;;
33152;SDS011;19509;43.862;26.176;2022-07-29T01:32:26;10.20;;;9.10;;
33152;SDS011;19509;43.862;26.176;2022-07-29T01:37:45;10.37;;;9.27;;
33152;SDS011;19509;43.862;26.176;2022-07-29T01:40:22;9.93;;;9.03;;
33152;SDS011;19509;43.862;26.176;2022-07-29T01:42:57;10.33;;;9.43;;
33152;SDS011;19509;43.862;26.176;2022-07-29T01:45:31;10.43;;;9.37;;
33152;SDS011;19509;43.862;26.176;2022-07-29T01:48:10;10.23;;;9.30;;
33152;SDS011;19509;43.862;26.176;2022-07-29T01:50:40;9.83;;;8.83;;
33152;SDS011;19509;43.862;26.176;2022-07-29T01:53:15;10.33;;;9.43;;
33152;SDS011;19509;43.862;26.176;2022-07-29T01:55:46;7.80;;;7.10;;
33152;SDS011;19509;43.862;26.176;2022-07-29T01:58:14;8.80;;;7.90;;
33152;SDS011;19509;43.862;26.176;2022-07-29T02:00:42;8.90;;;8.10;;
33152;SDS011;19509;43.862;26.176;2022-07-29T02:03:11;9.03;;;8.17;;
33152;SDS011;19509;43.862;26.176;2022-07-29T02:05:38;10.77;;;8.93;;
33152;SDS011;19509;43.862;26.176;2022-07-29T02:08:05;11.60;;;7.30;;
33152;SDS011;19509;43.862;26.176;2022-07-29T02:10:33;7.80;;;6.80;;
33152;SDS011;19509;43.862;26.176;2022-07-29T02:13:01;9.20;;;7.37;;
33152;SDS011;19509;43.862;26.176;2022-07-29T02:15:28;10.00;;;8.07;;
33152;SDS011;19509;43.862;26.176;2022-07-29T02:17:56;8.50;;;7.60;;
33152;SDS011;19509;43.862;26.176;2022-07-29T02:20:25;12.13;;;9.53;;
33152;SDS011;19509;43.862;26.176;2022-07-29T02:22:52;10.57;;;9.57;;
33152;SDS011;19509;43.862;26.176;2022-07-29T02:25:18;11.67;;;9.53;;
33152;SDS011;19509;43.862;26.176;2022-07-29T02:27:47;9.93;;;8.67;;
33152;SDS011;19509;43.862;26.176;2022-07-29T02:30:15;10.47;;;8.20;;
33152;SDS011;19509;43.862;26.176;2022-07-29T02:32:42;9.10;;;8.30;;
33152;SDS011;19509;43.862;26.176;2022-07-29T02:35:10;11.20;;;7.70;;
33152;SDS011;19509;43.862;26.176;2022-07-29T02:37:38;8.23;;;7.53;;
33152;SDS011;19509;43.862;26.176;2022-07-29T02:40:04;9.27;;;8.23;;
33152;SDS011;19509;43.862;26.176;2022-07-29T02:42:34;9.20;;;8.20;;
33152;SDS011;19509;43.862;26.176;2022-07-29T02:45:01;8.93;;;7.87;;
33152;SDS011;19509;43.862;26.176;2022-07-29T02:47:27;9.33;;;7.93;;
33152;SDS011;19509;43.862;26.176;2022-07-29T02:50:07;9.07;;;8.17;;
33152;SDS011;19509;43.862;26.176;2022-07-29T02:52:44;8.67;;;7.87;;
33152;SDS011;19509;43.862;26.176;2022-07-29T02:58:11;11.03;;;9.93;;
33152;SDS011;19509;43.862;26.176;2022-07-29T03:00:40;10.27;;;8.80;;
33152;SDS011;19509;43.862;26.176;2022-07-29T03:03:09;10.00;;;9.10;;
33152;SDS011;19509;43.862;26.176;2022-07-29T03:05:39;9.57;;;8.67;;
33152;SDS011;19509;43.862;26.176;2022-07-29T03:08:05;9.00;;;8.10;;
33152;SDS011;19509;43.862;26.176;2022-07-29T03:10:34;8.80;;;7.90;;
33152;SDS011;19509;43.862;26.176;2022-07-29T03:12:59;11.47;;;8.40;;
33152;SDS011;19509;43.862;26.176;2022-07-29T03:15:26;13.63;;;8.00;;
33152;SDS011;19509;43.862;26.176;2022-07-29T03:17:52;13.90;;;7.30;;
33152;SDS011;19509;43.862;26.176;2022-07-29T03:20:19;10.23;;;7.30;;
33152;SDS011;19509;43.862;26.176;2022-07-29T03:22:45;7.80;;;7.10;;
33152;SDS011;19509;43.862;26.176;2022-07-29T03:25:14;8.73;;;7.83;;
33152;SDS011;19509;43.862;26.176;2022-07-29T03:27:41;10.07;;;9.10;;
33152;SDS011;19509;43.862;26.176;2022-07-29T03:30:08;9.50;;;8.50;;
33152;SDS011;19509;43.862;26.176;2022-07-29T03:32:34;10.00;;;8.60;;
33152;SDS011;19509;43.862;26.176;2022-07-29T03:35:00;9.27;;;8.47;;
33152;SDS011;19509;43.862;26.176;2022-07-29T03:37:27;10.33;;;9.23;;
33152;SDS011;19509;43.862;26.176;2022-07-29T03:51:40;10.57;;;9.63;;
33152;SDS011;19509;43.862;26.176;2022-07-29T03:54:05;10.63;;;9.43;;
33152;SDS011;19509;43.862;26.176;2022-07-29T03:56:32;10.63;;;9.60;;
33152;SDS011;19509;43.862;26.176;2022-07-29T03:59:01;10.73;;;9.70;;
33152;SDS011;19509;43.862;26.176;2022-07-29T04:01:27;11.67;;;9.40;;
33152;SDS011;19509;43.862;26.176;2022-07-29T04:03:54;9.60;;;8.70;;
33152;SDS011;19509;43.862;26.176;2022-07-29T04:06:20;10.23;;;9.23;;
33152;SDS011;19509;43.862;26.176;2022-07-29T04:08:46;13.13;;;9.40;;
33152;SDS011;19509;43.862;26.176;2022-07-29T04:11:12;10.33;;;9.33;;
33152;SDS011;19509;43.862;26.176;2022-07-29T04:13:37;10.73;;;9.63;;
33152;SDS011;19509;43.862;26.176;2022-07-29T04:16:03;11.10;;;9.57;;
33152;SDS011;19509;43.862;26.176;2022-07-29T04:18:29;12.07;;;9.47;;
33152;SDS011;19509;43.862;26.176;2022-07-29T04:20:54;12.23;;;9.37;;
33152;SDS011;19509;43.862;26.176;2022-07-29T04:23:20;10.17;;;9.17;;
33152;SDS011;19509;43.862;26.176;2022-07-29T04:25:45;10.03;;;8.70;;
33152;SDS011;19509;43.862;26.176;2022-07-29T04:28:10;9.40;;;8.57;;
33152;SDS011;19509;43.862;26.176;2022-07-29T04:30:36;9.00;;;8.10;;
33152;SDS011;19509;43.862;26.176;2022-07-29T04:33:03;9.07;;;8.17;;
33152;SDS011;19509;43.862;26.176;2022-07-29T04:35:30;9.20;;;7.77;;
33152;SDS011;19509;43.862;26.176;2022-07-29T04:37:59;11.00;;;8.50;;
33152;SDS011;19509;43.862;26.176;2022-07-29T04:40:24;9.13;;;8.00;;
33152;SDS011;19509;43.862;26.176;2022-07-29T04:42:49;9.70;;;7.40;;
33152;SDS011;19509;43.862;26.176;2022-07-29T04:45:15;8.10;;;7.30;;
33152;SDS011;19509;43.862;26.176;2022-07-29T04:47:41;8.07;;;7.27;;
33152;SDS011;19509;43.862;26.176;2022-07-29T04:50:07;8.40;;;7.13;;
33152;SDS011;19509;43.862;26.176;2022-07-29T04:52:33;8.20;;;7.40;;
33152;SDS011;19509;43.862;26.176;2022-07-29T04:55:00;9.33;;;8.07;;
33152;SDS011;19509;43.862;26.176;2022-07-29T04:57:26;11.83;;;8.10;;
33152;SDS011;19509;43.862;26.176;2022-07-29T04:59:51;10.90;;;7.80;;
33152;SDS011;19509;43.862;26.176;2022-07-29T05:02:17;9.33;;;8.33;;
33152;SDS011;19509;43.862;26.176;2022-07-29T05:04:42;9.10;;;8.27;;
33152;SDS011;19509;43.862;26.176;2022-07-29T05:07:08;10.50;;;7.73;;
33152;SDS011;19509;43.862;26.176;2022-07-29T05:09:33;12.17;;;7.40;;
33152;SDS011;19509;43.862;26.176;2022-07-29T05:11:59;13.03;;;7.50;;
33152;SDS011;19509;43.862;26.176;2022-07-29T05:14:24;10.00;;;7.43;;
33152;SDS011;19509;43.862;26.176;2022-07-29T05:16:50;9.50;;;7.27;;
33152;SDS011;19509;43.862;26.176;2022-07-29T05:19:16;7.90;;;6.77;;
33152;SDS011;19509;43.862;26.176;2022-07-29T05:21:44;6.80;;;5.67;;
33152;SDS011;19509;43.862;26.176;2022-07-29T05:24:10;8.47;;;6.40;;
33152;SDS011;19509;43.862;26.176;2022-07-29T05:26:36;6.30;;;5.70;;
33152;SDS011;19509;43.862;26.176;2022-07-29T05:29:01;7.97;;;5.80;;
33152;SDS011;19509;43.862;26.176;2022-07-29T05:31:27;7.43;;;6.10;;
33152;SDS011;19509;43.862;26.176;2022-07-29T05:33:53;7.30;;;6.13;;
33152;SDS011;19509;43.862;26.176;2022-07-29T05:36:18;8.80;;;5.90;;
33152;SDS011;19509;43.862;26.176;2022-07-29T05:38:43;8.90;;;5.90;;
33152;SDS011;19509;43.862;26.176;2022-07-29T05:41:09;8.00;;;5.83;;
33152;SDS011;19509;43.862;26.176;2022-07-29T05:43:34;8.60;;;6.40;;
33152;SDS011;19509;43.862;26.176;2022-07-29T05:46:00;8.57;;;5.80;;
33152;SDS011;19509;43.862;26.176;2022-07-29T05:48:25;8.87;;;6.10;;
33152;SDS011;19509;43.862;26.176;2022-07-29T05:50:51;6.13;;;5.53;;
33152;SDS011;19509;43.862;26.176;2022-07-29T05:53:17;6.50;;;5.83;;
33152;SDS011;19509;43.862;26.176;2022-07-29T05:55:42;6.73;;;5.53;;
33152;SDS011;19509;43.862;26.176;2022-07-29T05:58:08;5.80;;;5.30;;
33152;SDS011;19509;43.862;26.176;2022-07-29T06:00:33;6.03;;;5.30;;
33152;SDS011;19509;43.862;26.176;2022-07-29T06:02:59;6.77;;;5.27;;
33152;SDS011;19509;43.862;26.176;2022-07-29T06:05:25;9.57;;;4.50;;
33152;SDS011;19509;43.862;26.176;2022-07-29T06:07:50;4.50;;;4.10;;
33152;SDS011;19509;43.862;26.176;2022-07-29T06:10:16;5.40;;;3.80;;
33152;SDS011;19509;43.862;26.176;2022-07-29T06:12:41;7.83;;;4.23;;
33152;SDS011;19509;43.862;26.176;2022-07-29T06:15:07;10.40;;;4.50;;
33152;SDS011;19509;43.862;26.176;2022-07-29T06:17:33;5.47;;;4.20;;
33152;SDS011;19509;43.862;26.176;2022-07-29T06:19:58;4.93;;;4.33;;
33152;SDS011;19509;43.862;26.176;2022-07-29T06:22:24;4.60;;;3.40;;
33152;SDS011;19509;43.862;26.176;2022-07-29T06:24:49;4.00;;;3.60;;
33152;SDS011;19509;43.862;26.176;2022-07-29T06:27:15;7.93;;;3.60;;
33152;SDS011;19509;43.862;26.176;2022-07-29T06:29:41;4.87;;;3.80;;
33152;SDS011;19509;43.862;26.176;2022-07-29T06:32:07;6.13;;;3.37;;
33152;SDS011;19509;43.862;26.176;2022-07-29T06:34:34;3.97;;;3.40;;
33152;SDS011;19509;43.862;26.176;2022-07-29T06:37:00;6.40;;;3.30;;
33152;SDS011;19509;43.862;26.176;2022-07-29T06:39:27;7.80;;;3.80;;
33152;SDS011;19509;43.862;26.176;2022-07-29T06:41:53;7.73;;;3.13;;
33152;SDS011;19509;43.862;26.176;2022-07-29T06:44:18;6.63;;;3.53;;
33152;SDS011;19509;43.862;26.176;2022-07-29T06:46:44;5.37;;;3.30;;
33152;SDS011;19509;43.862;26.176;2022-07-29T06:49:12;5.10;;;3.50;;
33152;SDS011;19509;43.862;26.176;2022-07-29T06:51:38;3.97;;;3.33;;
33152;SDS011;19509;43.862;26.176;2022-07-29T06:54:04;4.93;;;3.33;;
33152;SDS011;19509;43.862;26.176;2022-07-29T06:56:31;6.83;;;3.10;;
33152;SDS011;19509;43.862;26.176;2022-07-29T06:58:57;7.30;;;2.97;;
33152;SDS011;19509;43.862;26.176;2022-07-29T07:01:22;3.40;;;3.10;;
33152;SDS011;19509;43.862;26.176;2022-07-29T07:03:48;3.70;;;3.30;;
33152;SDS011;19509;43.862;26.176;2022-07-29T07:06:14;4.50;;;3.07;;
33152;SDS011;19509;43.862;26.176;2022-07-29T07:08:39;4.00;;;3.50;;
33152;SDS011;19509;43.862;26.176;2022-07-29T07:11:05;4.90;;;3.10;;
33152;SDS011;19509;43.862;26.176;2022-07-29T07:13:32;4.30;;;3.23;;
33152;SDS011;19509;43.862;26.176;2022-07-29T07:15:59;6.43;;;3.23;;
33152;SDS011;19509;43.862;26.176;2022-07-29T07:18:26;3.83;;;3.23;;
33152;SDS011;19509;43.862;26.176;2022-07-29T07:20:51;4.37;;;3.00;;
33152;SDS011;19509;43.862;26.176;2022-07-29T07:23:17;4.47;;;3.27;;
33152;SDS011;19509;43.862;26.176;2022-07-29T07:25:42;5.90;;;3.37;;
33152;SDS011;19509;43.862;26.176;2022-07-29T07:28:08;13.20;;;3.60;;
33152;SDS011;19509;43.862;26.176;2022-07-29T07:30:33;6.73;;;3.50;;
33152;SDS011;19509;43.862;26.176;2022-07-29T07:33:00;6.67;;;3.30;;
33152;SDS011;19509;43.862;26.176;2022-07-29T07:35:25;5.10;;;3.03;;
33152;SDS011;19509;43.862;26.176;2022-07-29T07:37:52;4.57;;;3.30;;
33152;SDS011;19509;43.862;26.176;2022-07-29T07:40:19;7.37;;;3.27;;
33152;SDS011;19509;43.862;26.176;2022-07-29T07:42:45;5.07;;;3.30;;
33152;SDS011;19509;43.862;26.176;2022-07-29T07:45:11;5.83;;;3.13;;
33152;SDS011;19509;43.862;26.176;2022-07-29T07:47:37;4.33;;;3.20;;
33152;SDS011;19509;43.862;26.176;2022-07-29T07:50:04;4.87;;;3.20;;
33152;SDS011;19509;43.862;26.176;2022-07-29T07:52:32;6.10;;;3.37;;
33152;SDS011;19509;43.862;26.176;2022-07-29T07:54:58;4.80;;;3.20;;
33152;SDS011;19509;43.862;26.176;2022-07-29T07:57:24;5.00;;;3.43;;
33152;SDS011;19509;43.862;26.176;2022-07-29T07:59:49;3.27;;;2.93;;
33152;SDS011;19509;43.862;26.176;2022-07-29T08:02:15;6.17;;;3.23;;
33152;SDS011;19509;43.862;26.176;2022-07-29T08:04:40;3.87;;;3.40;;
33152;SDS011;19509;43.862;26.176;2022-07-29T08:07:06;3.40;;;3.10;;
33152;SDS011;19509;43.862;26.176;2022-07-29T08:09:33;6.43;;;3.47;;
33152;SDS011;19509;43.862;26.176;2022-07-29T08:11:59;5.27;;;3.50;;
33152;SDS011;19509;43.862;26.176;2022-07-29T08:14:27;9.93;;;3.53;;
33152;SDS011;19509;43.862;26.176;2022-07-29T08:16:52;6.27;;;3.40;;
33152;SDS011;19509;43.862;26.176;2022-07-29T08:19:18;3.67;;;2.50;;
33152;SDS011;19509;43.862;26.176;2022-07-29T08:21:44;4.20;;;3.40;;
33152;SDS011;19509;43.862;26.176;2022-07-29T08:24:09;6.23;;;3.53;;
33152;SDS011;19509;43.862;26.176;2022-07-29T08:26:54;6.73;;;3.13;;
33152;SDS011;19509;43.862;26.176;2022-07-29T08:29:19;4.23;;;3.27;;
33152;SDS011;19509;43.862;26.176;2022-07-29T08:31:45;5.43;;;3.00;;
33152;SDS011;19509;43.862;26.176;2022-07-29T08:34:10;8.90;;;3.47;;
33152;SDS011;19509;43.862;26.176;2022-07-29T08:36:37;3.60;;;3.00;;
33152;SDS011;19509;43.862;26.176;2022-07-29T08:39:03;5.63;;;2.97;;
33152;SDS011;19509;43.862;26.176;2022-07-29T08:41:28;7.30;;;3.40;;
33152;SDS011;19509;43.862;26.176;2022-07-29T08:43:54;6.53;;;3.10;;
33152;SDS011;19509;43.862;26.176;2022-07-29T08:46:20;7.03;;;3.07;;
33152;SDS011;19509;43.862;26.176;2022-07-29T08:48:47;6.33;;;3.03;;
33152;SDS011;19509;43.862;26.176;2022-07-29T08:51:19;4.70;;;3.50;;
33152;SDS011;19509;43.862;26.176;2022-07-29T08:53:46;5.43;;;3.50;;
33152;SDS011;19509;43.862;26.176;2022-07-29T08:56:14;4.83;;;3.07;;
33152;SDS011;19509;43.862;26.176;2022-07-29T08:58:44;5.97;;;3.47;;
33152;SDS011;19509;43.862;26.176;2022-07-29T09:01:11;5.30;;;3.20;;
33152;SDS011;19509;43.862;26.176;2022-07-29T09:03:41;6.10;;;3.33;;
33152;SDS011;19509;43.862;26.176;2022-07-29T09:06:11;5.63;;;3.10;;
33152;SDS011;19509;43.862;26.176;2022-07-29T09:08:39;8.60;;;3.07;;
33152;SDS011;19509;43.862;26.176;2022-07-29T09:11:04;3.57;;;3.10;;
33152;SDS011;19509;43.862;26.176;2022-07-29T09:13:32;3.60;;;3.00;;
33152;SDS011;19509;43.862;26.176;2022-07-29T09:15:58;3.53;;;3.00;;
33152;SDS011;19509;43.862;26.176;2022-07-29T09:18:33;5.43;;;3.30;;
33152;SDS011;19509;43.862;26.176;2022-07-29T09:21:06;6.40;;;3.53;;
33152;SDS011;19509;43.862;26.176;2022-07-29T09:26:35;3.50;;;3.00;;
33152;SDS011;19509;43.862;26.176;2022-07-29T09:29:35;4.13;;;3.00;;
33152;SDS011;19509;43.862;26.176;2022-07-29T09:31:54;4.87;;;3.13;;
33152;SDS011;19509;43.862;26.176;2022-07-29T09:34:24;5.93;;;3.03;;
33152;SDS011;19509;43.862;26.176;2022-07-29T09:36:53;9.57;;;3.50;;
33152;SDS011;19509;43.862;26.176;2022-07-29T09:39:30;4.30;;;3.00;;
33152;SDS011;19509;43.862;26.176;2022-07-29T09:42:06;4.47;;;3.20;;
33152;SDS011;19509;43.862;26.176;2022-07-29T09:44:41;3.80;;;3.27;;
33152;SDS011;19509;43.862;26.176;2022-07-29T09:47:13;5.40;;;3.40;;
33152;SDS011;19509;43.862;26.176;2022-07-29T09:52:16;5.97;;;3.10;;
33152;SDS011;19509;43.862;26.176;2022-07-29T09:54:42;4.47;;;3.13;;
33152;SDS011;19509;43.862;26.176;2022-07-29T09:57:08;7.87;;;3.47;;
33152;SDS011;19509;43.862;26.176;2022-07-29T09:59:55;7.53;;;3.50;;
33152;SDS011;19509;43.862;26.176;2022-07-29T10:02:31;5.07;;;3.87;;
33152;SDS011;19509;43.862;26.176;2022-07-29T10:04:58;4.07;;;3.00;;
33152;SDS011;19509;43.862;26.176;2022-07-29T10:07:25;3.83;;;3.40;;
33152;SDS011;19509;43.862;26.176;2022-07-29T10:09:55;5.47;;;3.10;;
33152;SDS011;19509;43.862;26.176;2022-07-29T10:12:22;5.13;;;3.30;;
33152;SDS011;19509;43.862;26.176;2022-07-29T10:14:48;3.80;;;3.40;;
33152;SDS011;19509;43.862;26.176;2022-07-29T10:17:15;3.20;;;2.80;;
33152;SDS011;19509;43.862;26.176;2022-07-29T10:19:41;4.70;;;3.27;;
33152;SDS011;19509;43.862;26.176;2022-07-29T10:22:08;4.93;;;3.10;;
33152;SDS011;19509;43.862;26.176;2022-07-29T10:24:35;4.80;;;3.10;;
33152;SDS011;19509;43.862;26.176;2022-07-29T10:27:03;4.57;;;3.30;;
33152;SDS011;19509;43.862;26.176;2022-07-29T10:29:30;7.03;;;3.50;;
33152;SDS011;19509;43.862;26.176;2022-07-29T10:32:08;3.67;;;3.37;;
33152;SDS011;19509;43.862;26.176;2022-07-29T10:40:17;4.20;;;3.40;;
33152;SDS011;19509;43.862;26.176;2022-07-29T10:43:29;6.67;;;3.43;;
33152;SDS011;19509;43.862;26.176;2022-07-29T10:45:58;5.63;;;3.40;;
33152;SDS011;19509;43.862;26.176;2022-07-29T10:48:25;8.17;;;3.60;;
33152;SDS011;19509;43.862;26.176;2022-07-29T10:50:51;3.73;;;3.30;;
33152;SDS011;19509;43.862;26.176;2022-07-29T10:53:45;3.87;;;3.13;;
33152;SDS011;19509;43.862;26.176;2022-07-29T10:56:32;6.57;;;3.67;;
33152;SDS011;19509;43.862;26.176;2022-07-29T11:01:45;5.10;;;2.90;;
33152;SDS011;19509;43.862;26.176;2022-07-29T11:07:10;3.73;;;3.00;;
33152;SDS011;19509;43.862;26.176;2022-07-29T11:09:37;3.30;;;3.00;;
33152;SDS011;19509;43.862;26.176;2022-07-29T11:12:03;4.33;;;3.20;;
33152;SDS011;19509;43.862;26.176;2022-07-29T11:14:56;3.30;;;3.00;;
33152;SDS011;19509;43.862;26.176;2022-07-29T11:17:27;6.43;;;3.43;;
33152;SDS011;19509;43.862;26.176;2022-07-29T11:22:56;4.57;;;2.93;;
33152;SDS011;19509;43.862;26.176;2022-07-29T11:25:22;5.40;;;3.03;;
33152;SDS011;19509;43.862;26.176;2022-07-29T11:27:48;7.33;;;3.33;;
33152;SDS011;19509;43.862;26.176;2022-07-29T11:30:14;8.00;;;3.77;;
33152;SDS011;19509;43.862;26.176;2022-07-29T11:32:43;4.00;;;3.40;;
33152;SDS011;19509;43.862;26.176;2022-07-29T11:35:20;4.40;;;3.43;;
33152;SDS011;19509;43.862;26.176;2022-07-29T11:49:09;3.60;;;3.17;;
33152;SDS011;19509;43.862;26.176;2022-07-29T11:51:36;4.20;;;3.20;;
33152;SDS011;19509;43.862;26.176;2022-07-29T11:54:02;6.03;;;3.40;;
33152;SDS011;19509;43.862;26.176;2022-07-29T11:56:30;4.73;;;2.70;;
33152;SDS011;19509;43.862;26.176;2022-07-29T11:59:07;4.20;;;3.07;;
33152;SDS011;19509;43.862;26.176;2022-07-29T12:01:34;5.60;;;3.60;;
33152;SDS011;19509;43.862;26.176;2022-07-29T12:04:06;6.03;;;3.97;;
33152;SDS011;19509;43.862;26.176;2022-07-29T12:06:36;6.10;;;3.37;;
33152;SDS011;19509;43.862;26.176;2022-07-29T12:09:07;4.20;;;3.20;;
33152;SDS011;19509;43.862;26.176;2022-07-29T12:11:34;5.80;;;3.37;;
33152;SDS011;19509;43.862;26.176;2022-07-29T12:14:00;3.93;;;3.47;;
33152;SDS011;19509;43.862;26.176;2022-07-29T12:16:34;6.13;;;3.50;;
33152;SDS011;19509;43.862;26.176;2022-07-29T12:19:01;3.97;;;3.07;;
33152;SDS011;19509;43.862;26.176;2022-07-29T12:24:09;5.77;;;3.20;;
33152;SDS011;19509;43.862;26.176;2022-07-29T12:26:34;5.50;;;3.77;;
33152;SDS011;19509;43.862;26.176;2022-07-29T12:29:00;7.03;;;3.33;;
33152;SDS011;19509;43.862;26.176;2022-07-29T12:31:27;4.33;;;3.40;;
33152;SDS011;19509;43.862;26.176;2022-07-29T12:33:52;4.97;;;3.30;;
33152;SDS011;19509;43.862;26.176;2022-07-29T12:36:18;5.03;;;3.57;;
33152;SDS011;19509;43.862;26.176;2022-07-29T12:38:44;5.43;;;3.50;;
33152;SDS011;19509;43.862;26.176;2022-07-29T12:41:11;4.03;;;3.53;;
33152;SDS011;19509;43.862;26.176;2022-07-29T12:43:36;7.60;;;3.70;;
33152;SDS011;19509;43.862;26.176;2022-07-29T12:46:14;3.50;;;3.20;;
33152;SDS011;19509;43.862;26.176;2022-07-29T12:48:40;4.20;;;3.63;;
33152;SDS011;19509;43.862;26.176;2022-07-29T12:51:08;5.70;;;3.50;;
33152;SDS011;19509;43.862;26.176;2022-07-29T12:53:35;4.47;;;3.40;;
33152;SDS011;19509;43.862;26.176;2022-07-29T12:56:02;6.70;;;3.37;;
33152;SDS011;19509;43.862;26.176;2022-07-29T12:58:30;6.70;;;3.30;;
33152;SDS011;19509;43.862;26.176;2022-07-29T13:01:01;4.47;;;3.43;;
33152;SDS011;19509;43.862;26.176;2022-07-29T13:03:27;5.43;;;3.13;;
33152;SDS011;19509;43.862;26.176;2022-07-29T13:05:54;4.40;;;3.00;;
33152;SDS011;19509;43.862;26.176;2022-07-29T13:08:19;4.03;;;3.33;;
33152;SDS011;19509;43.862;26.176;2022-07-29T13:10:45;6.43;;;3.43;;
33152;SDS011;19509;43.862;26.176;2022-07-29T13:13:11;8.50;;;3.20;;
33152;SDS011;19509;43.862;26.176;2022-07-29T13:15:41;4.63;;;3.27;;
33152;SDS011;19509;43.862;26.176;2022-07-29T13:20:54;6.70;;;3.17;;
33152;SDS011;19509;43.862;26.176;2022-07-29T13:23:20;4.13;;;3.47;;
33152;SDS011;19509;43.862;26.176;2022-07-29T13:25:46;4.50;;;3.27;;
33152;SDS011;19509;43.862;26.176;2022-07-29T13:28:11;4.43;;;3.60;;
33152;SDS011;19509;43.862;26.176;2022-07-29T13:30:37;4.90;;;3.43;;
33152;SDS011;19509;43.862;26.176;2022-07-29T13:33:04;3.47;;;3.17;;
33152;SDS011;19509;43.862;26.176;2022-07-29T13:35:30;3.90;;;3.50;;
33152;SDS011;19509;43.862;26.176;2022-07-29T13:37:55;5.93;;;3.40;;
33152;SDS011;19509;43.862;26.176;2022-07-29T13:40:21;7.53;;;3.80;;
33152;SDS011;19509;43.862;26.176;2022-07-29T13:42:46;5.80;;;3.60;;
33152;SDS011;19509;43.862;26.176;2022-07-29T13:45:12;4.73;;;3.33;;
33152;SDS011;19509;43.862;26.176;2022-07-29T13:47:37;3.90;;;3.50;;
33152;SDS011;19509;43.862;26.176;2022-07-29T13:50:03;9.73;;;3.97;;
33152;SDS011;19509;43.862;26.176;2022-07-29T13:52:30;4.60;;;3.70;;
33152;SDS011;19509;43.862;26.176;2022-07-29T13:54:56;4.33;;;3.30;;
33152;SDS011;19509;43.862;26.176;2022-07-29T13:57:21;4.70;;;3.20;;
33152;SDS011;19509;43.862;26.176;2022-07-29T13:59:47;5.97;;;3.60;;
33152;SDS011;19509;43.862;26.176;2022-07-29T14:02:12;4.33;;;3.53;;
33152;SDS011;19509;43.862;26.176;2022-07-29T14:04:38;10.53;;;3.80;;
33152;SDS011;19509;43.862;26.176;2022-07-29T14:07:04;6.17;;;3.70;;
33152;SDS011;19509;43.862;26.176;2022-07-29T14:09:30;4.20;;;3.80;;
33152;SDS011;19509;43.862;26.176;2022-07-29T14:11:56;7.93;;;3.50;;
33152;SDS011;19509;43.862;26.176;2022-07-29T14:14:21;3.47;;;3.17;;
33152;SDS011;19509;43.862;26.176;2022-07-29T14:16:47;8.60;;;3.70;;
33152;SDS011;19509;43.862;26.176;2022-07-29T14:19:12;4.60;;;3.20;;
33152;SDS011;19509;43.862;26.176;2022-07-29T14:21:38;6.57;;;3.60;;
33152;SDS011;19509;43.862;26.176;2022-07-29T14:24:04;7.17;;;3.60;;
33152;SDS011;19509;43.862;26.176;2022-07-29T14:26:31;3.50;;;3.20;;
33152;SDS011;19509;43.862;26.176;2022-07-29T14:28:56;5.17;;;3.40;;
33152;SDS011;19509;43.862;26.176;2022-07-29T14:31:21;3.87;;;3.30;;
33152;SDS011;19509;43.862;26.176;2022-07-29T14:33:47;4.27;;;3.53;;
33152;SDS011;19509;43.862;26.176;2022-07-29T14:36:12;3.80;;;3.50;;
33152;SDS011;19509;43.862;26.176;2022-07-29T14:38:38;4.47;;;3.57;;
33152;SDS011;19509;43.862;26.176;2022-07-29T14:41:05;4.00;;;3.60;;
33152;SDS011;19509;43.862;26.176;2022-07-29T14:43:33;4.93;;;3.93;;
33152;SDS011;19509;43.862;26.176;2022-07-29T14:45:59;5.77;;;3.50;;
33152;SDS011;19509;43.862;26.176;2022-07-29T14:48:24;5.80;;;3.37;;
33152;SDS011;19509;43.862;26.176;2022-07-29T14:50:50;4.13;;;3.73;;
33152;SDS011;19509;43.862;26.176;2022-07-29T14:53:15;5.77;;;3.73;;
33152;SDS011;19509;43.862;26.176;2022-07-29T14:55:41;5.60;;;3.67;;
33152;SDS011;19509;43.862;26.176;2022-07-29T14:58:07;5.20;;;3.60;;
33152;SDS011;19509;43.862;26.176;2022-07-29T15:00:32;4.47;;;3.53;;
33152;SDS011;19509;43.862;26.176;2022-07-29T15:02:59;7.93;;;4.07;;
33152;SDS011;19509;43.862;26.176;2022-07-29T15:05:25;6.97;;;3.97;;
33152;SDS011;19509;43.862;26.176;2022-07-29T15:07:50;4.43;;;3.70;;
33152;SDS011;19509;43.862;26.176;2022-07-29T15:10:16;4.17;;;3.53;;
33152;SDS011;19509;43.862;26.176;2022-07-29T15:12:42;5.97;;;4.00;;
33152;SDS011;19509;43.862;26.176;2022-07-29T15:15:07;5.53;;;3.90;;
33152;SDS011;19509;43.862;26.176;2022-07-29T15:17:33;4.47;;;4.07;;
33152;SDS011;19509;43.862;26.176;2022-07-29T15:19:59;7.33;;;3.80;;
33152;SDS011;19509;43.862;26.176;2022-07-29T15:22:24;6.27;;;3.60;;
33152;SDS011;19509;43.862;26.176;2022-07-29T15:24:50;4.33;;;3.73;;
33152;SDS011;19509;43.862;26.176;2022-07-29T15:27:15;5.87;;;3.40;;
33152;SDS011;19509;43.862;26.176;2022-07-29T15:29:41;12.20;;;3.70;;